Los Posos, Valles Caldera, New Mexico Weather observations

Data are for 10 minute period ending at time listed.
 Day   Time   Solar   Ave.   Ave.  Ave.  Vector  Max.   Baro.   Total    
  of    of     Rad.   Air    Rel.  Wind   Wind   Wind  Press.  Precip.   
Year   Day            Temp.  Hum.  Speed  Dir.   Gust                    
2014   (MST)  Kw/m2    F      %     mph   deg.    mph    mb.     in.     
-------------------------------------------------------------------------
 109    6:30   0.17   34.6    86    0.6     6     2.4   99999.0    0.00 
 109    6:40   0.20   35.9    86    0.0     0     0.0   99999.0    0.00 
 109    6:50   0.23   37.6    84    1.5    65     2.4   99999.0    0.00 
 109    7:00   0.27   39.4    80    1.6    35     2.4   99999.0    0.00 
 109    7:10   0.30   41.8    76    1.5    46     2.4   99999.0    0.00 
 109    7:20   0.34   44.8    67    0.7   345     2.4   99999.0    0.00 
 109    7:30   0.39   47.8    60    1.4    62     3.0   99999.0    0.00 
 109    7:40   0.47   50.4    53    3.2    30     5.4   99999.0    0.00 
 109    7:50   0.40   46.4    57    3.9   259     7.2   99999.0    0.00 
 109    8:00   0.47   46.4    56    4.5   321    10.8   99999.0    0.00 
 109    8:10   0.33   46.8    56    3.6   342     6.6   99999.0    0.00 
 109    8:20   0.43   48.0    54    5.0   326    10.2   99999.0    0.00 
 109    8:30   0.48   49.4    51    5.0    22     8.4   99999.0    0.00 
 109    8:40   0.57   50.7    48    4.0    34     7.2   99999.0    0.00 
 109    8:50   0.45   50.5    48    3.7    56     6.0   99999.0    0.00 
 109    9:00   0.33   51.0    44    3.6    52     6.6   99999.0    0.00 
 109    9:10   0.70   50.1    46    3.7   120     5.4   99999.0    0.00 
 109    9:20   0.56   50.3    46    5.3   146    11.3   99999.0    0.00 
 109    9:30   0.69   50.4    45    6.7   134    13.7   99999.0    0.00 
 109    9:40   0.94   52.2    42    6.8   153    12.5   99999.0    0.00 
 109    9:50   0.64   51.8    40    6.1   164    11.9   99999.0    0.00 
 109   10:00   0.48   52.4    39    4.3   320     7.8   99999.0    0.00 
 109   10:10   0.37   51.2    39    3.9   222     8.4   99999.0    0.00 
 109   10:20   0.36   50.4    41    4.6   284    10.2   99999.0    0.00 
 109   10:30   0.43   50.3    41    4.8   200    11.3   99999.0    0.00 
 109   10:40   0.49   50.4    41    4.5   199    11.9   99999.0    0.00 
 109   10:50   0.40   50.0    42    6.5   262    11.9   99999.0    0.00 
 109   11:00   0.35   49.6    44    4.7   248     9.0   99999.0    0.00 
 109   11:10   0.96   51.3    41    3.7   280     7.2   99999.0    0.00 
 109   11:20   0.38   53.1    37    3.1   146     5.4   99999.0    0.00 
 109   11:30   0.44   51.9    39    3.3   150     7.2   99999.0    0.00 
 109   11:40   0.25   51.8    39    4.0    10     7.2   99999.0    0.00 
 109   11:50   0.23   52.5    39    5.6    11    10.8   99999.0    0.00 
 109   12:00   0.21   51.6    42    8.5   356    16.1   99999.0    0.00 
 109   12:10   0.29   51.2    51    5.9    61    10.8   99999.0    0.00 
 109   12:20   0.59   52.1    48    5.8    81    11.9   99999.0    0.00 
 109   12:30   0.38   52.2    46    5.9    78    10.8   99999.0    0.00 
 109   12:40   0.15   51.4    43    5.5    70    11.3   99999.0    0.00 
 109   12:50   0.10   50.4    40    7.0   351    10.8   99999.0    0.00 
 109   13:00   0.10   50.2    40    6.8   350    10.2   99999.0    0.00 
 109   13:10   0.09   49.5    50    7.7    76    12.5   99999.0    0.00 
 109   13:20   0.05   46.3    62    7.4   166    16.1   99999.0    0.00 
 109   13:30   0.03   42.6    74    8.3   201    14.9   99999.0    0.00 
 109   13:40   0.03   41.6    78    7.8   197    11.9   99999.0    0.00 
 109   13:50   0.02   40.9    80    6.1   191    10.2   99999.0    0.00 
 109   14:00   0.02   40.1    85    5.9   176     9.0   99999.0    0.00 
 109   14:10   0.02   39.5    88    5.2   189     7.2   99999.0    0.00 
 109   14:20   0.02   39.5    87    5.2   185     9.0   99999.0    0.00 
 109   14:30   0.02   39.6    87    1.5   182     4.2   99999.0    0.00 
 109   14:40   0.02   39.6    88    3.1    29     5.4   99999.0    0.00 
 109   14:50   0.02   39.1    88    1.6    26     4.2   99999.0    0.00 
 109   15:00   0.02   38.6    89    4.0    59     5.4   99999.0    0.02 
 109   15:10   0.02   37.8    90    3.1    50     4.8   99999.0    0.06 
 109   15:20   0.03   37.0    91    3.6   343     6.0   99999.0    0.04 
 109   15:30   0.04   36.6    92    3.0     4     4.8   99999.0    0.05 
 109   15:40   0.05   36.5    93    4.1    43     6.0   99999.0    0.02 
 109   15:50   0.07   36.6    94    4.3    47     6.0   99999.0    0.02 
 109   16:00   0.08   36.9    94    2.7    37     4.2   99999.0    0.01 
 109   16:10   0.10   37.4    93    0.7    18     3.6   99999.0    0.00 
 109   16:20   0.11   37.7    92    1.1   328     2.4   99999.0    0.01 
 109   16:30   0.11   38.0    91    1.8   287     2.4   99999.0    0.00 
 109   16:40   0.10   38.3    91    2.0   273     3.0   99999.0    0.00 
 109   16:50   0.09   38.7    91    2.5   247     4.2   99999.0    0.00 
 109   17:00   0.08   39.1    90    2.2   272     3.0   99999.0    0.00 
 109   17:10   0.06   39.6    90    0.4   200     2.4   99999.0    0.00 
 109   17:20   0.05   40.1    90    0.0     0     0.0   99999.0    0.00 
 109   17:30   0.03   40.1    89    0.0     0     0.0   99999.0    0.00 
 109   17:40   0.03   39.9    89    0.0     0     0.0   99999.0    0.01 
 109   17:50   0.02   39.7    90    0.3   317     3.6   99999.0    0.00 
 109   18:00   0.01   39.4    92    1.0   357     3.0   99999.0    0.00 
 109   18:10   0.01   39.3    92    0.8   151     2.4   99999.0    0.00 
 109   18:20   0.01   39.1    93    2.5   204     4.2   99999.0    0.00 
 109   18:30   0.01   39.0    94    1.8   309     3.0   99999.0    0.00 
 109   18:40   0.00   39.0    94    2.5   132     6.0   99999.0    0.00 
 109   18:50   0.00   38.8    94    4.2   182     7.2   99999.0    0.00 
 109   19:00   0.00   38.8    94    2.6   227     5.4   99999.0    0.00 
 109   19:10   0.00   38.6    94    1.8    51     3.6   99999.0    0.00 
 109   19:20   0.00   38.4    94    1.1   173     2.4   99999.0    0.00 
 109   19:30   0.00   38.2    94    1.0   344     3.6   99999.0    0.00 
 109   19:40   0.00   38.0    94    1.4    27     3.6   99999.0    0.00 
 109   19:50   0.00   37.9    94    3.3    74     4.8   99999.0    0.00 
 109   20:00   0.00   38.1    94    1.3    61     4.8   99999.0    0.00 
 109   20:10   0.00   38.0    94    0.1    87     1.8   99999.0    0.00 
 109   20:20   0.00   38.0    94    1.8    30     4.8   99999.0    0.00 
 109   20:30   0.00   38.1    95    1.4   338     3.0   99999.0    0.00 
 109   20:40   0.00   38.2    95    2.1    15     3.6   99999.0    0.00 
 109   20:50   0.00   38.2    94    0.9    12     3.0   99999.0    0.00 
 109   21:00   0.00   38.1    94    2.6   348     4.2   99999.0    0.00 
 109   21:10   0.00   38.2    93    0.1     2     2.4   99999.0    0.00 
 109   21:20   0.00   38.0    92    0.8    56     2.4   99999.0    0.00 
 109   21:30   0.00   37.7    93    0.1    13     1.8   99999.0    0.00 
 109   21:40   0.00   37.7    92    1.4    70     4.8   99999.0    0.00 
 109   21:50   0.00   37.5    92    0.3    97     3.6   99999.0    0.00 
 109   22:00   0.00   36.9    93    1.6   176     4.2   99999.0    0.00 
 109   22:10   0.00   36.6    93    2.5   216     3.6   99999.0    0.00 
 109   22:20   0.00   36.3    94    0.7   240     3.6   99999.0    0.00 
 109   22:30   0.00   36.2    95    0.0     0     0.0   99999.0    0.00 
 109   22:40   0.00   36.0    95    0.0     0     0.0   99999.0    0.00 
 109   22:50   0.00   35.9    95    1.9   241     3.6   99999.0    0.00 
 109   23:00   0.00   35.9    95    2.8   236     4.2   99999.0    0.00 
 109   23:10   0.00   36.0    96    1.1   236     3.0   99999.0    0.00 
 109   23:20   0.00   36.1    96    0.0     0     0.0   99999.0    0.00 
 109   23:30   0.00   36.1    96    0.0     0     0.0   99999.0    0.00 
 109   23:40   0.00   36.0    96    0.0     0     0.0   99999.0    0.00 
 109   23:50   0.00   35.8    96    0.0     0     0.0   99999.0    0.00 
 110    0:00   0.00   35.9    96    1.2   218     3.0   99999.0    0.00 
 110    0:10   0.00   35.9    96    0.9   216     3.0   99999.0    0.00 
 110    0:20   0.00   36.0    96    0.5   202     2.4   99999.0    0.00 
 110    0:30   0.00   35.9    96    0.0     0     0.0   99999.0    0.00 
 110    0:40   0.00   35.7    96    0.2   197     2.4   99999.0    0.00 
 110    0:50   0.00   35.7    96    0.0     0     0.0   99999.0    0.00 
 110    1:00   0.00   35.5    96    0.8   223     3.0   99999.0    0.00 
 110    1:10   0.00   35.6    96    0.9   272     3.0   99999.0    0.00 
 110    1:20   0.00   35.5    96    0.1   200     2.4   99999.0    0.00 
 110    1:30   0.00   35.2    96    0.5   254     3.0   99999.0    0.00 
 110    1:40   0.00   34.9    96    0.8   206     1.8   99999.0    0.00 
 110    1:50   0.00   34.6    96    0.4   178     2.4   99999.0    0.00 
 110    2:00   0.00   33.8    96    1.0   212     3.0   99999.0    0.00 
 110    2:10   0.00   33.5    96    0.0     0     0.0   99999.0    0.00 
 110    2:20   0.00   33.3    96    0.0     0     0.0   99999.0    0.00 
 110    2:30   0.00   33.0    96    0.0     0     0.0   99999.0    0.00 
 110    2:40   0.00   32.5    96    0.0     0     0.0   99999.0    0.00 
 110    2:50   0.00   31.8    96    0.0     0     0.0   99999.0    0.00 
 110    3:00   0.00   31.0    96    1.2   235     3.0   99999.0    0.00 
 110    3:10   0.00   31.1    97    0.6   222     3.0   99999.0    0.00 
 110    3:20   0.00   30.5    97    0.0     0     0.0   99999.0    0.00 
 110    3:30   0.00   30.4    97    0.0     0     0.0   99999.0    0.00 
 110    3:40   0.00   30.0    97    0.0     0     0.0   99999.0    0.00 
 110    3:50   0.00   29.7    97    0.0     0     0.0   99999.0    0.00 
 110    4:00   0.00   29.4    97    0.0     0     0.0   99999.0    0.00 
 110    4:10   0.00   29.5    97    0.0     0     0.0   99999.0    0.00 
 110    4:20   0.00   28.8    97    0.0     0     0.0   99999.0    0.00 
 110    4:30   0.00   29.2    97    0.0     0     0.0   99999.0    0.00 
 110    4:40   0.00   29.0    97    0.0     0     0.0   99999.0    0.00 
 110    4:50   0.00   28.9    97    0.0     0     0.0   99999.0    0.00 
 110    5:00   0.00   29.4    98    0.0     0     0.0   99999.0    0.00 
 110    5:10   0.00   29.5    98    0.0     0     0.0   99999.0    0.00 
 110    5:20   0.00   29.8    98    0.0     0     0.0   99999.0    0.00 
 110    5:30   0.00   30.2    98    0.0     0     0.0   99999.0    0.00 
 110    5:40   0.01   30.7    98    0.0     0     0.0   99999.0    0.00 
 110    5:50   0.02   31.1    98    0.0     0     0.0   99999.0    0.00 
 110    6:00   0.03   31.3    98    0.0     0     0.0   99999.0    0.00 
 110    6:10   0.06   31.7    98    0.0     0     0.0   99999.0    0.00 
 110    6:20   0.06   31.6    97    0.0     0     0.0   99999.0    0.00 

Return to Los Posos, Valles Caldera graphs page.


Western Regional Climate Center,wrcc@dri.edu